createdAt,value
2019-02-07T00:00:41.619Z,5.85
2019-02-07T00:01:47.131Z,5.89
2019-02-07T00:03:45.522Z,5.74
2019-02-07T00:04:51.055Z,5.74
2019-02-07T00:06:49.469Z,5.86
2019-02-07T00:07:54.978Z,5.83
2019-02-07T00:09:53.370Z,5.90
2019-02-07T00:10:58.902Z,5.76
2019-02-07T00:12:57.307Z,5.82
2019-02-07T00:14:02.825Z,5.71
2019-02-07T00:16:01.238Z,5.71
2019-02-07T00:17:06.747Z,5.65
2019-02-07T00:19:05.142Z,5.65
2019-02-07T00:20:10.672Z,5.68
2019-02-07T00:22:09.081Z,5.75
2019-02-07T00:23:14.612Z,5.71
2019-02-07T00:25:12.996Z,5.68
2019-02-07T00:26:18.524Z,5.68
2019-02-07T00:28:16.930Z,5.72
2019-02-07T00:29:22.450Z,5.67
2019-02-07T00:31:20.851Z,5.71
2019-02-07T00:32:26.369Z,5.60
2019-02-07T00:34:24.762Z,5.65
2019-02-07T00:35:30.293Z,5.65
2019-02-07T00:37:28.701Z,5.58
2019-02-07T00:38:34.212Z,5.63
2019-02-07T00:40:32.638Z,5.63
2019-02-07T00:41:38.136Z,5.58
2019-02-07T00:43:36.529Z,5.58
2019-02-07T00:44:50.406Z,5.56
2019-02-07T00:46:40.463Z,5.53
2019-02-07T00:47:45.984Z,5.51
2019-02-07T00:49:44.373Z,5.51
2019-02-07T00:50:50.018Z,5.53
2019-02-07T00:52:48.308Z,5.51
2019-02-07T00:53:53.822Z,5.53
2019-02-07T00:55:52.334Z,5.46
2019-02-07T00:56:57.750Z,5.53
2019-02-07T00:58:56.146Z,5.53
2019-02-07T01:00:01.670Z,5.45
2019-02-07T01:02:00.077Z,5.46
2019-02-07T01:03:05.594Z,5.40
2019-02-07T01:05:04.208Z,5.46
2019-02-07T01:06:09.740Z,5.53
2019-02-07T01:08:08.152Z,5.43
2019-02-07T01:09:13.658Z,5.38
2019-02-07T01:11:12.077Z,5.38
2019-02-07T01:12:17.588Z,5.40
2019-02-07T01:14:15.989Z,5.40
2019-02-07T01:15:21.519Z,5.33
2019-02-07T01:17:19.926Z,5.31
2019-02-07T01:18:25.528Z,5.30
2019-02-07T01:20:23.830Z,5.31
2019-02-07T01:21:29.358Z,5.27
2019-02-07T01:23:27.769Z,5.28
2019-02-07T01:24:33.280Z,5.20
2019-02-07T01:26:31.694Z,5.18
2019-02-07T01:27:37.205Z,5.21
2019-02-07T01:29:35.597Z,5.27
2019-02-07T01:30:41.130Z,5.21
2019-02-07T01:32:39.532Z,5.21
2019-02-07T01:33:45.050Z,5.20
2019-02-07T01:35:43.458Z,5.15
2019-02-07T01:38:20.535Z,5.15
2019-02-07T01:39:26.066Z,5.17
2019-02-07T01:41:25.313Z,5.17
2019-02-07T01:42:30.835Z,5.15
2019-02-07T01:44:29.228Z,5.20
2019-02-07T01:45:34.753Z,5.02
2019-02-07T01:47:33.161Z,5.04
2019-02-07T01:48:38.677Z,5.00
2019-02-07T01:50:37.067Z,5.02
2019-02-07T01:51:42.598Z,5.09
2019-02-07T01:53:41.003Z,5.06
2019-02-07T01:54:46.521Z,5.06
2019-02-07T01:56:44.926Z,5.03
2019-02-07T01:57:50.441Z,5.09
2019-02-07T01:59:49.699Z,5.04
2019-02-07T02:00:55.223Z,5.00
2019-02-07T02:02:53.634Z,5.06
2019-02-07T02:03:59.145Z,5.02
2019-02-07T02:05:57.639Z,5.04
2019-02-07T02:07:03.618Z,4.99
2019-02-07T02:09:02.346Z,4.97
2019-02-07T02:10:07.862Z,4.97
2019-02-07T02:12:06.279Z,5.02
2019-02-07T02:13:11.793Z,5.00
2019-02-07T02:15:10.185Z,4.96
2019-02-07T02:16:15.714Z,4.96
2019-02-07T02:18:14.120Z,4.94
2019-02-07T02:19:19.636Z,4.88
2019-02-07T02:21:18.031Z,4.96
2019-02-07T02:22:23.559Z,4.92
2019-02-07T02:24:21.960Z,4.97
2019-02-07T02:25:27.484Z,4.91
2019-02-07T02:27:25.886Z,4.91
2019-02-07T02:28:31.403Z,4.88
2019-02-07T02:30:30.662Z,4.92
2019-02-07T02:31:36.169Z,4.86
2019-02-07T02:33:34.582Z,4.88
2019-02-07T02:34:40.120Z,4.85
2019-02-07T02:36:38.488Z,4.91
2019-02-07T02:37:44.011Z,4.82
2019-02-07T02:39:42.418Z,4.92
2019-02-07T02:40:47.943Z,4.77
2019-02-07T02:42:46.343Z,4.82
2019-02-07T02:43:51.856Z,4.86
2019-02-07T02:45:50.251Z,4.80
2019-02-07T02:46:55.781Z,4.75
2019-02-07T02:48:54.187Z,4.78
2019-02-07T02:49:59.699Z,4.73
2019-02-07T02:51:58.094Z,4.75
2019-02-07T02:53:03.622Z,4.72
2019-02-07T02:55:02.025Z,4.77
2019-02-07T02:56:07.545Z,4.73
2019-02-07T02:58:05.949Z,4.82
2019-02-07T02:59:12.016Z,4.73
2019-02-07T03:01:09.942Z,4.77
2019-02-07T03:02:15.388Z,4.77
2019-02-07T03:04:13.793Z,4.77
2019-02-07T03:05:19.354Z,4.75
2019-02-07T03:07:17.702Z,4.73
2019-02-07T03:08:23.235Z,4.77
2019-02-07T03:10:21.642Z,4.72
2019-02-07T03:11:27.154Z,4.67
2019-02-07T03:13:25.552Z,4.78
2019-02-07T03:14:31.075Z,4.75
2019-02-07T03:16:29.465Z,4.69
2019-02-07T03:17:34.996Z,4.73
2019-02-07T03:19:33.398Z,4.73
2019-02-07T03:20:38.913Z,4.69
2019-02-07T03:22:37.308Z,4.66
2019-02-07T03:23:42.834Z,4.69
2019-02-07T03:25:41.242Z,4.77
2019-02-07T03:26:46.759Z,4.72
2019-02-07T03:28:45.151Z,4.72
2019-02-07T03:29:50.678Z,4.69
2019-02-07T03:31:49.086Z,4.67
2019-02-07T03:32:54.600Z,4.69
2019-02-07T03:34:53.006Z,4.66
2019-02-07T03:35:58.520Z,4.77
2019-02-07T03:37:56.918Z,4.69
2019-02-07T03:39:02.441Z,4.69
2019-02-07T03:41:00.844Z,4.65
2019-02-07T03:42:06.365Z,4.70
2019-02-07T03:44:04.752Z,4.66
2019-02-07T03:45:10.279Z,4.72
2019-02-07T03:47:08.695Z,4.65
2019-02-07T03:48:14.201Z,4.67
2019-02-07T03:50:12.607Z,4.67
2019-02-07T03:51:18.124Z,4.60
2019-02-07T03:53:16.514Z,4.58
2019-02-07T03:54:22.043Z,4.60
2019-02-07T03:56:20.936Z,4.65
2019-02-07T03:57:25.960Z,4.63
2019-02-07T03:59:24.353Z,4.62
2019-02-07T04:00:29.883Z,4.67
2019-02-07T04:02:29.133Z,4.58
2019-02-07T04:03:34.656Z,4.59
2019-02-07T04:05:33.057Z,4.62
2019-02-07T04:06:38.577Z,4.52
2019-02-07T04:08:36.979Z,4.50
2019-02-07T04:09:42.497Z,4.58
2019-02-07T04:11:40.899Z,4.52
2019-02-07T04:12:46.419Z,4.55
2019-02-07T04:14:44.814Z,4.48
2019-02-07T04:15:50.334Z,4.54
2019-02-07T04:17:49.593Z,4.50
2019-02-07T04:18:55.105Z,4.51
2019-02-07T04:20:53.497Z,4.50
2019-02-07T04:21:59.024Z,4.52
2019-02-07T04:23:57.432Z,4.48
2019-02-07T04:25:02.943Z,4.54
2019-02-07T04:27:01.366Z,4.55
2019-02-07T04:28:06.862Z,4.50
2019-02-07T04:30:05.253Z,4.50
2019-02-07T04:31:10.788Z,4.54
2019-02-07T04:33:09.185Z,4.54
2019-02-07T04:34:14.700Z,4.47
2019-02-07T04:36:13.097Z,4.50
2019-02-07T04:37:18.620Z,4.48
2019-02-07T04:39:17.024Z,4.47
2019-02-07T04:40:22.541Z,4.48
2019-02-07T04:42:20.932Z,4.51
2019-02-07T04:43:26.464Z,4.54
2019-02-07T04:45:24.863Z,4.48
2019-02-07T04:46:30.382Z,4.48
2019-02-07T04:48:29.633Z,4.50
2019-02-07T04:49:35.146Z,4.47
2019-02-07T04:51:33.539Z,4.51
2019-02-07T04:52:39.070Z,4.48
2019-02-07T04:54:37.472Z,4.48
2019-02-07T04:55:42.987Z,4.36
2019-02-07T04:57:41.377Z,4.45
2019-02-07T04:58:46.908Z,4.36
2019-02-07T05:00:45.308Z,4.37
2019-02-07T05:01:50.824Z,4.50
2019-02-07T05:03:49.229Z,4.50
2019-02-07T05:04:54.745Z,4.37
2019-02-07T05:06:53.133Z,4.52
2019-02-07T05:07:58.661Z,4.36
2019-02-07T05:09:57.072Z,4.36
2019-02-07T05:11:02.654Z,4.41
2019-02-07T05:13:00.975Z,4.34
2019-02-07T05:14:06.508Z,4.37
2019-02-07T05:16:04.907Z,4.34
2019-02-07T05:17:10.427Z,4.36
2019-02-07T05:19:08.819Z,4.36
2019-02-07T05:20:14.341Z,4.33
2019-02-07T05:22:12.750Z,4.40
2019-02-07T05:23:18.261Z,4.37
2019-02-07T05:25:17.515Z,4.41
2019-02-07T05:26:23.030Z,4.34
2019-02-07T05:28:21.422Z,4.36
2019-02-07T05:29:26.945Z,4.41
2019-02-07T05:31:25.354Z,4.40
2019-02-07T05:32:30.869Z,4.37
2019-02-07T05:34:29.259Z,4.34
2019-02-07T05:35:34.785Z,4.24
2019-02-07T05:37:33.195Z,4.30
2019-02-07T05:38:38.711Z,4.26
2019-02-07T05:40:37.677Z,4.33
2019-02-07T05:41:42.633Z,4.29
2019-02-07T05:43:41.023Z,4.29
2019-02-07T05:44:46.557Z,4.26
2019-02-07T05:46:51.186Z,4.32
2019-02-07T05:47:50.478Z,4.33
2019-02-07T05:49:48.873Z,4.29
2019-02-07T05:50:54.399Z,4.22
2019-02-07T05:52:52.813Z,4.30
2019-02-07T05:53:58.323Z,4.30
2019-02-07T05:55:56.715Z,4.32
2019-02-07T05:57:02.237Z,4.23
2019-02-07T05:59:00.662Z,4.32
2019-02-07T06:00:06.162Z,4.24
2019-02-07T06:02:04.565Z,4.29
2019-02-07T06:03:10.076Z,4.30
2019-02-07T06:05:08.471Z,4.23
2019-02-07T06:06:14.008Z,4.22
2019-02-07T06:08:12.403Z,4.20
2019-02-07T06:09:17.919Z,4.23
2019-02-07T06:11:16.312Z,4.22
2019-02-07T06:12:21.837Z,4.22
2019-02-07T06:14:20.243Z,4.24
2019-02-07T06:15:25.759Z,4.23
2019-02-07T06:17:24.154Z,4.24
2019-02-07T06:18:29.685Z,4.27
2019-02-07T06:20:28.085Z,4.20
2019-02-07T06:21:33.595Z,4.18
2019-02-07T06:23:31.982Z,4.26
2019-02-07T06:24:37.516Z,4.24
2019-02-07T06:26:36.767Z,4.22
2019-02-07T06:27:42.279Z,4.24
2019-02-07T06:29:40.683Z,4.18
2019-02-07T06:30:46.201Z,4.23
2019-02-07T06:32:44.589Z,4.16
2019-02-07T06:33:50.119Z,4.09
2019-02-07T06:35:48.525Z,4.15
2019-02-07T06:36:54.036Z,4.06
2019-02-07T06:38:52.428Z,4.09
2019-02-07T06:39:57.963Z,4.16
2019-02-07T06:41:56.364Z,4.08
2019-02-07T06:43:01.878Z,4.18
2019-02-07T06:45:00.284Z,4.08
2019-02-07T06:46:05.797Z,4.05
2019-02-07T06:48:04.264Z,4.05
2019-02-07T06:49:09.712Z,4.06
2019-02-07T06:51:08.121Z,3.97
2019-02-07T06:52:13.628Z,4.06
2019-02-07T06:54:12.022Z,4.04
2019-02-07T06:55:17.549Z,3.94
2019-02-07T06:57:17.085Z,3.97
2019-02-07T06:58:22.318Z,3.98
2019-02-07T07:00:20.730Z,3.87
2019-02-07T07:01:26.238Z,3.93
2019-02-07T07:03:24.630Z,3.96
2019-02-07T07:04:30.152Z,3.96
2019-02-07T07:06:28.559Z,3.96
2019-02-07T07:07:34.077Z,3.96
2019-02-07T07:09:32.468Z,3.90
2019-02-07T07:10:37.996Z,3.96
2019-02-07T07:12:36.451Z,3.90
2019-02-07T07:13:41.913Z,3.86
2019-02-07T07:15:40.491Z,3.96
2019-02-07T07:16:45.836Z,3.97
2019-02-07T07:18:44.240Z,4.00
2019-02-07T07:19:49.748Z,3.96
2019-02-07T07:21:48.161Z,3.94
2019-02-07T07:22:53.687Z,4.05
2019-02-07T07:24:52.912Z,4.00
2019-02-07T07:25:58.440Z,4.04
2019-02-07T07:27:56.841Z,4.04
2019-02-07T07:29:02.360Z,4.04
2019-02-07T07:31:00.753Z,4.14
2019-02-07T07:32:06.278Z,4.09
2019-02-07T07:34:04.686Z,4.08
2019-02-07T07:35:10.201Z,4.11
2019-02-07T07:37:08.586Z,4.16
2019-02-07T07:38:14.123Z,4.20
2019-02-07T07:40:12.526Z,4.16
2019-02-07T07:41:18.035Z,4.04
2019-02-07T07:43:16.430Z,4.12
2019-02-07T07:44:21.955Z,4.15
2019-02-07T07:46:20.366Z,4.14
2019-02-07T07:47:35.485Z,4.15
2019-02-07T07:49:24.285Z,4.16
2019-02-07T07:50:29.794Z,4.12
2019-02-07T07:52:28.774Z,4.15
2019-02-07T07:53:33.709Z,4.09
2019-02-07T07:55:32.116Z,4.15
2019-02-07T07:56:37.637Z,4.16
2019-02-07T07:58:36.020Z,4.15
2019-02-07T07:59:41.546Z,4.11
2019-02-07T08:01:39.953Z,4.18
2019-02-07T08:02:45.467Z,4.20
2019-02-07T08:04:43.869Z,4.26
2019-02-07T08:05:49.384Z,4.33
2019-02-07T08:07:47.783Z,4.33
2019-02-07T08:08:53.307Z,4.32
2019-02-07T08:10:51.705Z,4.27
2019-02-07T08:11:57.228Z,4.34
2019-02-07T08:13:55.616Z,4.33
2019-02-07T08:15:01.149Z,4.45
2019-02-07T08:16:59.552Z,4.41
2019-02-07T08:19:36.631Z,4.41
2019-02-07T08:20:42.161Z,4.48
2019-02-07T08:22:40.569Z,4.54
2019-02-07T08:23:46.083Z,4.59
2019-02-07T08:25:44.485Z,4.48
2019-02-07T08:26:50.011Z,4.51
2019-02-07T08:28:48.413Z,4.52
2019-02-07T08:29:53.932Z,4.50
2019-02-07T08:31:52.333Z,4.48
2019-02-07T08:32:57.847Z,4.48
2019-02-07T08:34:56.239Z,4.48
2019-02-07T08:36:01.771Z,4.50
2019-02-07T08:38:00.177Z,4.55
2019-02-07T08:39:06.242Z,4.48
2019-02-07T08:41:04.082Z,4.63
2019-02-07T08:42:09.611Z,4.58
2019-02-07T08:44:13.173Z,4.62
2019-02-07T08:45:13.528Z,4.63
2019-02-07T08:47:11.917Z,4.70
2019-02-07T08:48:17.447Z,4.65
2019-02-07T08:50:15.849Z,4.65
2019-02-07T08:51:21.361Z,4.75
2019-02-07T08:53:19.769Z,4.72
2019-02-07T08:54:25.288Z,4.78
2019-02-07T08:56:23.671Z,4.84
2019-02-07T08:57:29.205Z,4.84
2019-02-07T08:59:27.610Z,4.84
2019-02-07T09:00:33.117Z,4.85
2019-02-07T09:02:31.515Z,4.94
2019-02-07T09:03:37.046Z,4.96
2019-02-07T09:05:35.447Z,4.91
2019-02-07T09:06:40.965Z,5.09
2019-02-07T09:08:40.216Z,4.96
2019-02-07T09:09:45.734Z,5.00
2019-02-07T09:11:44.128Z,4.96
2019-02-07T09:12:49.654Z,5.02
2019-02-07T09:14:48.058Z,5.10
2019-02-07T09:15:53.572Z,5.06
2019-02-07T09:17:52.457Z,5.03
2019-02-07T09:18:57.985Z,5.12
2019-02-07T09:20:56.387Z,5.15
2019-02-07T09:22:01.907Z,5.03
2019-02-07T09:24:00.292Z,5.17
2019-02-07T09:25:05.827Z,5.12
2019-02-07T09:27:04.230Z,5.15
2019-02-07T09:28:09.747Z,5.20
2019-02-07T09:30:08.151Z,5.15
2019-02-07T09:31:13.667Z,5.18
2019-02-07T09:33:12.060Z,5.17
2019-02-07T09:34:17.586Z,5.17
2019-02-07T09:36:15.982Z,5.15
2019-02-07T09:37:21.503Z,5.15
2019-02-07T09:39:19.896Z,5.18
2019-02-07T09:40:25.434Z,5.17
2019-02-07T09:42:23.833Z,5.13
2019-02-07T09:43:29.347Z,5.22
2019-02-07T09:45:27.736Z,5.17
2019-02-07T09:46:33.263Z,5.15
2019-02-07T09:48:31.675Z,5.18
2019-02-07T09:49:37.186Z,5.18
2019-02-07T09:51:35.592Z,5.20
2019-02-07T09:52:41.106Z,5.24
2019-02-07T09:54:39.506Z,5.27
2019-02-07T09:55:45.033Z,5.17
2019-02-07T09:57:43.439Z,5.25
2019-02-07T09:58:48.950Z,5.21
2019-02-07T10:00:47.340Z,5.33
2019-02-07T10:01:52.870Z,5.36
2019-02-07T10:03:51.287Z,5.51
2019-02-07T10:04:56.803Z,5.45
2019-02-07T10:06:55.223Z,5.40
2019-02-07T10:08:00.721Z,5.49
2019-02-07T10:09:59.115Z,5.56
2019-02-07T10:11:04.643Z,5.51
2019-02-07T10:13:03.048Z,5.54
2019-02-07T10:14:08.562Z,5.53
2019-02-07T10:16:06.961Z,5.54
2019-02-07T10:17:12.488Z,5.63
2019-02-07T10:19:10.891Z,5.64
2019-02-07T10:20:16.410Z,5.64
2019-02-07T10:22:14.807Z,5.68
2019-02-07T10:23:20.332Z,5.67
2019-02-07T10:25:18.738Z,5.72
2019-02-07T10:26:24.253Z,5.71
2019-02-07T10:28:22.667Z,5.74
2019-02-07T10:29:28.179Z,5.74
2019-02-07T10:31:26.581Z,5.71
2019-02-07T10:32:32.098Z,5.71
2019-02-07T10:34:30.506Z,5.71
2019-02-07T10:35:36.025Z,5.65
2019-02-07T10:37:34.416Z,5.65
2019-02-07T10:38:39.946Z,5.67
2019-02-07T10:40:38.349Z,5.74
2019-02-07T10:41:43.871Z,5.74
2019-02-07T10:43:42.259Z,5.72
2019-02-07T10:44:47.783Z,5.68
2019-02-07T10:46:46.188Z,5.67
2019-02-07T10:47:51.734Z,5.64
2019-02-07T10:49:58.913Z,5.90
2019-02-07T10:50:55.627Z,5.85
2019-02-07T10:52:54.022Z,5.81
2019-02-07T10:53:59.555Z,5.81
2019-02-07T10:55:57.966Z,5.86
2019-02-07T10:57:03.474Z,5.89
2019-02-07T10:59:01.869Z,5.89
2019-02-07T11:00:07.397Z,5.97
2019-02-07T11:02:05.804Z,5.91
2019-02-07T11:03:11.320Z,5.99
2019-02-07T11:05:09.962Z,6.04
2019-02-07T11:06:15.471Z,6.01
2019-02-07T11:08:13.865Z,6.06
2019-02-07T11:09:19.416Z,6.06
2019-02-07T11:11:17.791Z,6.06
2019-02-07T11:12:23.312Z,6.09
2019-02-07T11:14:21.706Z,6.11
2019-02-07T11:15:27.231Z,6.15
2019-02-07T11:17:25.639Z,6.18
2019-02-07T11:18:31.704Z,6.17
2019-02-07T11:20:29.550Z,6.11
2019-02-07T11:21:35.080Z,6.15
2019-02-07T11:23:33.476Z,6.21
2019-02-07T11:24:38.999Z,6.31
2019-02-07T11:26:37.414Z,6.34
2019-02-07T11:27:42.920Z,6.28
2019-02-07T11:29:41.375Z,6.31
2019-02-07T11:30:46.838Z,6.33
2019-02-07T11:32:45.255Z,6.36
2019-02-07T11:33:50.763Z,6.33
2019-02-07T11:35:50.004Z,6.40
2019-02-07T11:36:55.536Z,6.40
2019-02-07T11:38:53.941Z,6.48
2019-02-07T11:39:59.458Z,6.43
2019-02-07T11:41:57.853Z,6.58
2019-02-07T11:43:03.383Z,6.55
2019-02-07T11:45:01.793Z,6.55
2019-02-07T11:46:07.305Z,6.66
2019-02-07T11:48:05.928Z,6.51
2019-02-07T11:49:11.231Z,6.52
2019-02-07T11:51:09.625Z,6.52
2019-02-07T11:52:15.155Z,6.54
2019-02-07T11:54:13.563Z,6.48
2019-02-07T11:55:19.091Z,6.44
2019-02-07T11:57:17.519Z,6.48
2019-02-07T11:58:23.001Z,6.43
2019-02-07T12:00:21.410Z,6.49
2019-02-07T12:01:26.928Z,6.59
2019-02-07T12:03:25.364Z,6.46
2019-02-07T12:04:30.881Z,6.46
2019-02-07T12:06:29.278Z,6.48
2019-02-07T12:07:34.804Z,6.44
2019-02-07T12:09:33.216Z,6.48
2019-02-07T12:10:38.729Z,6.54
2019-02-07T12:12:37.980Z,6.54
2019-02-07T12:13:43.504Z,6.51
2019-02-07T12:15:41.919Z,6.55
2019-02-07T12:16:47.431Z,6.54
2019-02-07T12:18:45.826Z,6.61
2019-02-07T12:19:51.356Z,6.59
2019-02-07T12:21:49.765Z,6.71
2019-02-07T12:22:55.278Z,6.69
2019-02-07T12:24:53.683Z,6.77
2019-02-07T12:25:59.204Z,6.71
2019-02-07T12:27:57.607Z,6.87
2019-02-07T12:29:03.135Z,6.88
2019-02-07T12:31:01.554Z,6.88
2019-02-07T12:32:07.079Z,7.02
2019-02-07T12:34:05.965Z,7.02
2019-02-07T12:35:11.489Z,7.05
2019-02-07T12:37:09.900Z,7.07
2019-02-07T12:38:15.422Z,7.09
2019-02-07T12:40:13.853Z,7.23
2019-02-07T12:41:19.348Z,7.30
2019-02-07T12:43:17.739Z,7.35
2019-02-07T12:44:23.264Z,7.28
2019-02-07T12:46:21.671Z,7.27
2019-02-07T12:47:27.192Z,7.46
2019-02-07T12:49:29.268Z,7.53
2019-02-07T12:50:31.118Z,7.55
2019-02-07T12:52:30.372Z,7.63
2019-02-07T12:53:35.889Z,7.63
2019-02-07T12:55:34.290Z,7.77
2019-02-07T12:56:39.861Z,7.80
2019-02-07T12:58:38.227Z,7.86
2019-02-07T12:59:43.746Z,7.86
2019-02-07T13:01:42.143Z,7.87
2019-02-07T13:02:48.218Z,7.85
2019-02-07T13:04:46.083Z,7.87
2019-02-07T13:05:51.606Z,7.93
2019-02-07T13:07:50.012Z,7.92
2019-02-07T13:08:55.525Z,7.90
2019-02-07T13:10:53.921Z,7.92
2019-02-07T13:11:59.449Z,8.02
2019-02-07T13:13:57.867Z,7.93
2019-02-07T13:15:03.378Z,8.01
2019-02-07T13:17:01.781Z,8.01
2019-02-07T13:18:07.353Z,7.98
2019-02-07T13:20:05.741Z,8.10
2019-02-07T13:21:11.269Z,8.01
2019-02-07T13:23:09.655Z,8.12
2019-02-07T13:24:15.166Z,8.19
2019-02-07T13:26:13.571Z,8.15
2019-02-07T13:27:19.081Z,8.15
2019-02-07T13:29:17.485Z,8.22
2019-02-07T13:30:23.005Z,8.25
2019-02-07T13:32:21.401Z,8.23
2019-02-07T13:33:26.952Z,8.25
2019-02-07T13:35:25.358Z,8.26
2019-02-07T13:36:30.867Z,8.20
2019-02-07T13:38:29.254Z,8.28
2019-02-07T13:39:37.446Z,8.18
2019-02-07T13:41:33.195Z,8.25
2019-02-07T13:42:38.712Z,8.23
2019-02-07T13:44:37.123Z,8.20
2019-02-07T13:45:42.639Z,8.15
2019-02-07T13:47:41.035Z,8.12
2019-02-07T13:48:46.566Z,8.30
2019-02-07T13:50:44.971Z,8.15
2019-02-07T13:51:50.490Z,8.15
2019-02-07T13:53:48.883Z,8.20
2019-02-07T13:54:54.417Z,8.25
2019-02-07T13:56:52.821Z,8.18
2019-02-07T13:57:58.343Z,8.23
2019-02-07T13:59:57.233Z,8.22
2019-02-07T14:01:02.265Z,8.16
2019-02-07T14:03:00.662Z,8.23
2019-02-07T14:04:06.189Z,8.22
2019-02-07T14:06:04.600Z,8.28
2019-02-07T14:07:10.122Z,8.33
2019-02-07T14:09:08.514Z,8.34
2019-02-07T14:10:14.050Z,8.33
2019-02-07T14:12:12.455Z,8.41
2019-02-07T14:13:17.973Z,8.44
2019-02-07T14:15:16.365Z,8.50
2019-02-07T14:16:21.900Z,8.45
2019-02-07T14:18:20.313Z,8.44
2019-02-07T14:19:25.855Z,8.45
2019-02-07T14:21:24.228Z,8.47
2019-02-07T14:22:29.749Z,8.48
2019-02-07T14:24:28.150Z,8.48
2019-02-07T14:25:33.678Z,8.44
2019-02-07T14:27:32.103Z,8.47
2019-02-07T14:28:37.610Z,8.40
2019-02-07T14:30:36.003Z,8.44
2019-02-07T14:31:41.534Z,8.30
2019-02-07T14:35:12.380Z,8.36
2019-02-07T14:36:17.897Z,8.33
2019-02-07T14:38:16.306Z,8.28
2019-02-07T14:39:21.824Z,8.33
2019-02-07T14:41:21.073Z,8.25
2019-02-07T14:42:26.604Z,8.22
2019-02-07T14:44:25.013Z,8.26
2019-02-07T14:45:30.612Z,8.22
2019-02-07T14:47:28.960Z,8.19
2019-02-07T14:48:34.461Z,8.29
2019-02-07T14:50:33.710Z,8.28
2019-02-07T14:51:39.237Z,8.30
2019-02-07T14:53:37.653Z,8.37
2019-02-07T14:54:43.172Z,8.37
2019-02-07T14:56:41.567Z,8.33
2019-02-07T14:57:47.099Z,8.28
2019-02-07T14:59:45.516Z,8.33
2019-02-07T15:00:51.033Z,8.33
2019-02-07T15:02:49.427Z,8.30
2019-02-07T15:03:54.959Z,8.28
2019-02-07T15:05:53.372Z,8.29
2019-02-07T15:06:58.888Z,8.25
2019-02-07T15:08:57.296Z,8.28
2019-02-07T15:10:02.815Z,8.22
2019-02-07T15:12:01.213Z,8.20
2019-02-07T15:13:06.744Z,8.19
2019-02-07T15:15:05.151Z,8.19
2019-02-07T15:16:10.667Z,8.11
2019-02-07T15:18:09.067Z,8.08
2019-02-07T15:19:14.601Z,8.11
2019-02-07T15:21:13.011Z,7.95
2019-02-07T15:22:18.529Z,8.07
2019-02-07T15:24:17.856Z,8.01
2019-02-07T15:25:23.316Z,8.00
2019-02-07T15:27:22.302Z,8.04
2019-02-07T15:28:27.263Z,8.08
2019-02-07T15:30:25.678Z,8.07
2019-02-07T15:31:31.191Z,7.92
2019-02-07T15:33:29.586Z,7.89
2019-02-07T15:34:35.117Z,7.90
2019-02-07T15:36:33.528Z,7.82
2019-02-07T15:37:39.042Z,7.85
2019-02-07T15:39:37.440Z,7.77
2019-02-07T15:40:43.520Z,7.71
2019-02-07T15:42:41.383Z,7.72
2019-02-07T15:43:46.907Z,7.67
2019-02-07T15:45:45.319Z,7.69
2019-02-07T15:46:50.845Z,7.64
2019-02-07T15:48:49.236Z,7.55
2019-02-07T15:49:54.765Z,7.60
2019-02-07T15:51:54.072Z,7.58
2019-02-07T15:52:59.581Z,7.55
2019-02-07T15:54:57.966Z,7.55
2019-02-07T15:56:03.498Z,7.57
2019-02-07T15:59:33.465Z,7.57
2019-02-07T16:00:38.986Z,7.49
2019-02-07T16:02:37.395Z,7.37
2019-02-07T16:03:42.912Z,7.32
2019-02-07T16:05:41.358Z,7.25
2019-02-07T16:06:46.835Z,7.25
2019-02-07T16:08:45.229Z,7.17
2019-02-07T16:09:50.760Z,7.21
2019-02-07T16:11:51.793Z,7.20
2019-02-07T16:12:54.699Z,7.21
2019-02-07T16:14:53.934Z,7.24
2019-02-07T16:15:59.467Z,7.24
2019-02-07T16:17:57.874Z,7.25
2019-02-07T16:19:03.391Z,7.27
2019-02-07T16:21:01.824Z,7.20
2019-02-07T16:22:07.323Z,7.20
2019-02-07T16:24:05.714Z,7.25
2019-02-07T16:25:11.239Z,7.27
2019-02-07T16:27:09.656Z,7.17
2019-02-07T16:28:15.165Z,7.13
2019-02-07T16:30:13.575Z,7.09
2019-02-07T16:31:19.086Z,7.10
2019-02-07T16:33:17.507Z,7.12
2019-02-07T16:34:23.012Z,7.07
2019-02-07T16:36:21.411Z,7.15
2019-02-07T16:37:26.935Z,7.07
2019-02-07T16:39:25.365Z,7.12
2019-02-07T16:40:30.855Z,7.10
2019-02-07T16:42:29.396Z,7.10
2019-02-07T16:43:34.776Z,7.03
2019-02-07T16:45:33.174Z,7.03
2019-02-07T16:46:38.700Z,7.05
2019-02-07T16:48:37.107Z,7.03
2019-02-07T16:49:42.622Z,6.91
2019-02-07T16:51:41.863Z,6.92
2019-02-07T16:52:47.399Z,6.87
2019-02-07T16:54:45.794Z,6.91
2019-02-07T16:55:51.326Z,6.95
2019-02-07T16:57:49.726Z,6.87
2019-02-07T16:58:55.240Z,6.88
2019-02-07T17:00:53.631Z,6.74
2019-02-07T17:01:59.160Z,6.70
2019-02-07T17:03:57.565Z,6.77
2019-02-07T17:05:03.085Z,6.74
2019-02-07T17:07:01.474Z,6.77
2019-02-07T17:08:07.008Z,6.76
2019-02-07T17:10:05.413Z,6.84
2019-02-07T17:11:10.932Z,6.79
2019-02-07T17:13:09.360Z,6.84
2019-02-07T17:14:14.857Z,6.64
2019-02-07T17:16:13.251Z,6.70
2019-02-07T17:17:18.784Z,6.62
2019-02-07T17:19:17.232Z,6.54
2019-02-07T17:20:22.741Z,6.51
2019-02-07T17:22:21.190Z,6.52
2019-02-07T17:23:26.714Z,6.58
2019-02-07T17:25:25.489Z,6.52
2019-02-07T17:26:30.654Z,6.52
2019-02-07T17:28:29.082Z,6.51
2019-02-07T17:29:34.574Z,6.48
2019-02-07T17:31:32.969Z,6.40
2019-02-07T17:32:38.498Z,6.54
2019-02-07T17:34:36.948Z,6.37
2019-02-07T17:35:42.467Z,6.37
2019-02-07T17:37:40.863Z,6.40
2019-02-07T17:38:46.390Z,6.48
2019-02-07T17:40:45.640Z,6.44
2019-02-07T17:41:51.162Z,6.54
2019-02-07T17:43:49.564Z,6.46
2019-02-07T17:44:55.078Z,6.52
2019-02-07T17:46:53.498Z,6.41
2019-02-07T17:47:59.014Z,6.43
2019-02-07T17:49:57.421Z,6.44
2019-02-07T17:51:02.934Z,6.37
2019-02-07T17:53:01.328Z,6.38
2019-02-07T17:54:06.858Z,6.46
2019-02-07T17:56:05.270Z,6.41
2019-02-07T17:57:10.777Z,6.48
2019-02-07T17:59:09.173Z,6.38
2019-02-07T18:00:14.700Z,6.38
2019-02-07T18:02:13.110Z,6.37
2019-02-07T18:03:18.621Z,6.44
2019-02-07T18:05:17.044Z,6.37
2019-02-07T18:06:22.545Z,6.41
2019-02-07T18:08:20.941Z,6.46
2019-02-07T18:09:26.464Z,6.41
2019-02-07T18:11:24.916Z,6.40
2019-02-07T18:12:30.389Z,6.49
2019-02-07T18:14:28.773Z,6.46
2019-02-07T18:15:34.303Z,6.48
2019-02-07T18:17:32.708Z,6.46
2019-02-07T18:18:38.319Z,6.48
2019-02-07T18:20:36.618Z,6.49
2019-02-07T18:21:42.151Z,6.48
2019-02-07T18:23:40.554Z,6.48
2019-02-07T18:24:46.083Z,6.44
2019-02-07T18:26:44.478Z,6.41
2019-02-07T18:27:49.991Z,6.41
2019-02-07T18:29:48.383Z,6.40
2019-02-07T18:30:53.914Z,6.40
2019-02-07T18:32:53.167Z,6.21
2019-02-07T18:33:58.685Z,6.31
2019-02-07T18:35:57.077Z,6.17
2019-02-07T18:37:02.606Z,6.12
2019-02-07T18:39:01.009Z,6.25
2019-02-07T18:40:06.528Z,6.18
2019-02-07T18:42:04.927Z,6.28
2019-02-07T18:43:10.443Z,6.21
2019-02-07T18:45:08.839Z,6.15
2019-02-07T18:46:14.370Z,6.22
2019-02-07T18:48:12.974Z,6.21
2019-02-07T18:49:18.289Z,6.18
2019-02-07T18:51:16.695Z,6.22
2019-02-07T18:52:22.223Z,6.27
2019-02-07T18:54:20.639Z,6.12
2019-02-07T18:55:26.141Z,6.28
2019-02-07T18:57:24.560Z,6.22
2019-02-07T18:58:30.065Z,6.25
2019-02-07T19:00:28.458Z,6.22
2019-02-07T19:01:33.987Z,6.21
2019-02-07T19:03:32.395Z,6.11
2019-02-07T19:04:37.919Z,6.18
2019-02-07T19:06:36.376Z,6.27
2019-02-07T19:07:41.833Z,6.34
2019-02-07T19:09:40.246Z,6.28
2019-02-07T19:10:45.757Z,6.22
2019-02-07T19:12:44.153Z,6.18
2019-02-07T19:13:49.676Z,6.28
2019-02-07T19:15:48.081Z,6.27
2019-02-07T19:16:53.598Z,6.31
2019-02-07T19:18:52.002Z,6.33
2019-02-07T19:19:57.517Z,6.41
2019-02-07T19:21:57.410Z,6.44
2019-02-07T19:23:01.441Z,6.44
2019-02-07T19:26:31.415Z,6.61
2019-02-07T19:27:36.953Z,6.66
2019-02-07T19:29:35.331Z,6.64
2019-02-07T19:30:40.852Z,6.69
2019-02-07T19:32:39.249Z,6.59
2019-02-07T19:33:44.779Z,6.67
2019-02-07T19:35:43.181Z,6.64
2019-02-07T19:36:48.692Z,6.70
2019-02-07T19:38:47.094Z,6.66
2019-02-07T19:39:52.624Z,6.66
2019-02-07T19:41:51.026Z,6.62
2019-02-07T19:42:56.543Z,6.67
2019-02-07T19:44:54.945Z,6.69
2019-02-07T19:46:00.462Z,6.59
2019-02-07T19:47:58.857Z,6.74
2019-02-07T19:49:04.385Z,6.67
2019-02-07T19:51:02.796Z,6.73
2019-02-07T19:52:08.663Z,6.85
2019-02-07T19:54:06.700Z,6.77
2019-02-07T19:55:12.227Z,6.79
2019-02-07T19:57:10.645Z,6.64
2019-02-07T19:58:16.163Z,6.59
2019-02-07T20:00:14.594Z,6.62
2019-02-07T20:01:20.094Z,6.49
2019-02-07T20:03:18.495Z,6.56
2019-02-07T20:04:24.027Z,6.56
2019-02-07T20:06:22.427Z,6.58
2019-02-07T20:07:27.947Z,6.49
2019-02-07T20:09:26.338Z,6.54
2019-02-07T20:10:31.869Z,6.44
2019-02-07T20:12:30.268Z,6.43
2019-02-07T20:13:35.785Z,6.43
2019-02-07T20:15:34.179Z,6.52
2019-02-07T20:16:39.709Z,6.49
2019-02-07T20:18:38.338Z,6.46
2019-02-07T20:19:43.857Z,6.51
2019-02-07T20:21:42.266Z,6.48
2019-02-07T20:22:47.776Z,6.49
2019-02-07T20:24:46.385Z,6.46
2019-02-07T20:25:51.697Z,6.49
2019-02-07T20:27:50.201Z,6.55
2019-02-07T20:28:55.618Z,6.59
2019-02-07T20:30:54.038Z,6.54